createdAt,value
2018-11-22T12:16:10.025Z,8.42
2018-11-22T12:18:38.337Z,8.47
2018-11-22T12:21:06.765Z,8.13
2018-11-22T12:23:35.124Z,8.43
2018-11-22T12:26:03.485Z,8.76
2018-11-22T12:28:31.824Z,8.79
2018-11-22T12:31:06.385Z,8.79
2018-11-22T12:33:43.641Z,8.96
2018-11-22T12:36:23.904Z,8.85
2018-11-22T12:38:52.541Z,8.88
2018-11-22T12:41:20.945Z,8.88
2018-11-22T12:43:49.327Z,8.71
2018-11-22T12:46:17.684Z,8.30
2018-11-22T12:48:46.115Z,8.19
2018-11-22T12:51:15.624Z,8.29
2018-11-22T12:53:43.964Z,8.00
2018-11-22T12:56:12.491Z,8.70
2018-11-22T12:58:40.799Z,8.71
2018-11-22T13:01:09.251Z,8.48
2018-11-22T13:03:37.600Z,8.75
2018-11-22T13:06:06.258Z,8.92
2018-11-22T13:08:34.669Z,9.02
2018-11-22T13:11:03.073Z,9.35
2018-11-22T13:13:31.503Z,9.32
2018-11-22T13:15:59.963Z,9.07
2018-11-22T13:18:28.791Z,10.19
2018-11-22T13:20:57.194Z,10.39
2018-11-22T13:23:25.664Z,9.68
2018-11-22T13:25:54.046Z,9.63
2018-11-22T13:28:22.472Z,9.33
2018-11-22T13:30:52.626Z,10.77
2018-11-22T13:33:21.765Z,10.80
2018-11-22T13:35:50.056Z,9.17
2018-11-22T13:38:18.654Z,8.92
2018-11-22T13:40:46.983Z,9.50
2018-11-22T13:43:15.362Z,9.99
2018-11-22T13:45:43.707Z,8.87
2018-11-22T13:48:12.190Z,9.53
2018-11-22T13:50:42.096Z,9.97
2018-11-22T13:53:08.977Z,9.32
2018-11-22T13:55:37.567Z,9.36
2018-11-22T13:58:06.199Z,8.89
2018-11-22T14:00:35.192Z,9.56
2018-11-22T14:03:05.817Z,9.19
2018-11-22T14:05:34.397Z,8.50
2018-11-22T14:08:02.768Z,9.19
2018-11-22T14:10:31.216Z,9.24
2018-11-22T14:12:59.652Z,9.15
2018-11-22T14:15:29.465Z,9.02
2018-11-22T14:17:59.365Z,8.97
2018-11-22T14:20:29.153Z,8.44
2018-11-22T14:22:57.578Z,8.58
2018-11-22T14:25:26.059Z,8.65
2018-11-22T14:27:54.399Z,7.55
2018-11-22T14:30:24.693Z,7.40
2018-11-22T14:32:53.344Z,8.03
2018-11-22T14:35:22.412Z,8.36
2018-11-22T14:37:51.112Z,7.78
2018-11-22T14:40:21.096Z,7.69
2018-11-22T14:42:50.456Z,8.12
2018-11-22T14:45:18.974Z,8.32
2018-11-22T14:47:48.536Z,7.88
2018-11-22T14:50:39.560Z,7.82
2018-11-22T14:53:10.735Z,7.67
2018-11-22T14:55:39.504Z,7.93
2018-11-22T14:58:08.225Z,8.30
2018-11-22T15:00:36.609Z,8.18
2018-11-22T15:03:05.060Z,7.59
2018-11-22T15:05:33.496Z,7.70
2018-11-22T15:08:02.039Z,7.94
2018-11-22T15:10:30.494Z,7.54
2018-11-22T15:12:58.806Z,7.61
2018-11-22T15:15:28.045Z,7.52
2018-11-22T15:17:56.535Z,7.54
2018-11-22T15:20:25.037Z,7.66
2018-11-22T15:22:53.977Z,7.83
2018-11-22T15:25:25.720Z,7.28
2018-11-22T15:27:54.097Z,7.45
2018-11-22T15:30:24.849Z,7.57
2018-11-22T15:32:53.306Z,7.40
2018-11-22T15:35:23.233Z,7.32
2018-11-22T15:37:52.195Z,7.03
2018-11-22T15:40:21.981Z,6.60
2018-11-22T15:42:51.712Z,6.81
2018-11-22T15:45:21.513Z,6.84
2018-11-22T15:47:50.139Z,7.21
2018-11-22T15:50:19.846Z,7.02
2018-11-22T15:52:48.321Z,7.04
2018-11-22T15:55:20.932Z,7.21
2018-11-22T15:57:47.519Z,6.55
2018-11-22T16:00:20.562Z,6.75
2018-11-22T16:02:49.351Z,6.85
2018-11-22T16:05:18.242Z,7.06
2018-11-22T16:07:46.571Z,7.00
2018-11-22T16:10:18.437Z,6.52
2018-11-22T16:12:47.635Z,6.76
2018-11-22T16:15:20.219Z,6.67
2018-11-22T16:17:48.753Z,6.64
2018-11-22T16:20:17.112Z,6.47
2018-11-22T16:22:45.713Z,6.67
2018-11-22T16:25:14.115Z,6.45
2018-11-22T16:27:42.681Z,7.03
2018-11-22T16:30:15.492Z,6.99
2018-11-22T16:32:44.289Z,6.70
2018-11-22T16:35:13.975Z,6.66
2018-11-22T16:37:43.019Z,6.45
2018-11-22T16:40:13.632Z,6.76
2018-11-22T16:42:42.994Z,6.43
2018-11-22T16:45:17.976Z,6.32
2018-11-22T16:47:46.510Z,6.18
2018-11-22T16:50:15.872Z,6.20
2018-11-22T16:52:44.258Z,6.35
2018-11-22T16:55:13.032Z,6.29
2018-11-22T16:57:43.103Z,6.24
2018-11-22T17:00:19.730Z,6.23
2018-11-22T17:02:49.322Z,5.99
2018-11-22T17:05:17.913Z,5.50
2018-11-22T17:07:46.709Z,5.89
2018-11-22T17:10:18.283Z,6.25
2018-11-22T17:12:47.335Z,6.03
2018-11-22T17:15:17.109Z,6.04
2018-11-22T17:17:46.047Z,5.87
2018-11-22T17:20:15.518Z,5.95
2018-11-22T17:22:44.403Z,6.17
2018-11-22T17:25:15.912Z,5.92
2018-11-22T17:27:45.097Z,5.80
2018-11-22T17:30:19.706Z,5.56
2018-11-22T17:32:48.051Z,5.70
2018-11-22T17:35:22.675Z,5.72
2018-11-22T17:37:51.364Z,5.16
2018-11-22T17:40:23.578Z,5.53
2018-11-22T17:42:52.023Z,5.60
2018-11-22T17:45:23.480Z,5.47
2018-11-22T17:47:51.989Z,5.49
2018-11-22T17:50:20.966Z,5.52
2018-11-22T17:52:49.357Z,5.34
2018-11-22T17:55:28.252Z,5.67
2018-11-22T17:58:02.557Z,5.39
2018-11-22T18:00:33.438Z,5.10
2018-11-22T18:03:03.562Z,5.48
2018-11-22T18:05:32.162Z,5.58
2018-11-22T18:08:00.725Z,5.34
2018-11-22T18:10:32.462Z,5.45
2018-11-22T18:13:17.846Z,5.18
2018-11-22T18:16:00.830Z,5.37
2018-11-22T18:18:29.966Z,5.36
2018-11-22T18:20:58.341Z,5.30
2018-11-22T18:23:26.764Z,5.45
2018-11-22T18:25:55.213Z,4.98
2018-11-22T18:28:23.694Z,5.14
2018-11-22T18:30:52.798Z,5.14
2018-11-22T18:33:21.381Z,5.26
2018-11-22T18:35:49.784Z,5.49
2018-11-22T18:38:18.211Z,5.52
2018-11-22T18:40:46.633Z,5.32
2018-11-22T18:43:15.035Z,5.08
2018-11-22T18:45:45.077Z,5.49
2018-11-22T18:48:14.608Z,5.46
2018-11-22T18:50:43.735Z,5.23
2018-11-22T18:53:12.353Z,5.35
2018-11-22T18:55:40.729Z,5.09
2018-11-22T18:58:09.163Z,5.14
2018-11-22T19:00:40.281Z,5.25
2018-11-22T19:03:11.549Z,4.82
2018-11-22T19:05:39.960Z,5.04
2018-11-22T19:08:08.389Z,5.17
2018-11-22T19:10:39.176Z,4.76
2018-11-22T19:13:08.680Z,5.03
2018-11-22T19:15:39.333Z,5.11
2018-11-22T19:18:08.467Z,4.81
2018-11-22T19:20:38.276Z,5.25
2018-11-22T19:23:07.547Z,4.92
2018-11-22T19:25:36.014Z,5.30
2018-11-22T19:28:04.906Z,5.26
2018-11-22T19:30:37.274Z,5.05
2018-11-22T19:33:04.728Z,5.16
2018-11-22T19:35:35.561Z,5.24
2018-11-22T19:38:04.168Z,5.19
2018-11-22T19:40:34.087Z,5.00
2018-11-22T19:43:03.654Z,5.04
2018-11-22T19:45:33.697Z,6.46
2018-11-22T19:48:02.065Z,6.02
2018-11-22T19:50:31.040Z,6.54
2018-11-22T19:53:00.705Z,6.15
2018-11-22T19:55:31.460Z,5.97
2018-11-22T19:58:01.427Z,6.06
2018-11-22T20:00:30.189Z,6.30
2018-11-22T20:02:59.853Z,6.15
2018-11-22T20:05:29.441Z,6.03
2018-11-22T20:07:59.326Z,5.97
2018-11-22T20:10:30.591Z,6.03
2018-11-22T20:12:58.479Z,6.02
2018-11-22T20:15:26.857Z,6.08
2018-11-22T20:17:55.801Z,5.66
2018-11-22T20:20:24.628Z,5.93
2018-11-22T20:22:53.460Z,5.70
2018-11-22T20:25:21.959Z,6.17
2018-11-22T20:27:51.343Z,6.06
2018-11-22T20:30:28.763Z,5.69
2018-11-22T20:32:58.731Z,5.92
2018-11-22T20:35:28.374Z,5.96
2018-11-22T20:37:56.973Z,6.00
2018-11-22T20:40:26.441Z,6.00
2018-11-22T20:42:54.886Z,5.81
2018-11-22T20:45:24.391Z,6.04
2018-11-22T20:47:54.377Z,5.92
2018-11-22T20:50:24.267Z,5.43
2018-11-22T20:52:52.721Z,5.95
2018-11-22T20:55:29.068Z,5.72
2018-11-22T20:57:58.497Z,5.88
2018-11-22T21:00:29.173Z,5.14
2018-11-22T21:02:57.595Z,4.75
2018-11-22T21:05:26.528Z,4.56
2018-11-22T21:07:54.890Z,4.39
2018-11-22T21:10:24.710Z,4.28
2018-11-22T21:12:53.081Z,4.45
2018-11-22T21:15:23.005Z,4.42
2018-11-22T21:17:52.782Z,4.30
2018-11-22T21:20:23.170Z,4.36
2018-11-22T21:22:51.542Z,5.10
2018-11-22T21:25:20.608Z,4.68
2018-11-22T21:27:49.126Z,4.40
2018-11-22T21:30:20.603Z,4.33
2018-11-22T21:32:49.628Z,4.11
2018-11-22T21:35:18.529Z,4.16
2018-11-22T21:37:47.639Z,4.35
2018-11-22T21:40:16.624Z,4.40
2018-11-22T21:42:46.184Z,4.29
2018-11-22T21:45:16.827Z,4.15
2018-11-22T21:47:45.252Z,4.51
2018-11-22T21:50:14.852Z,4.43
2018-11-22T21:52:44.333Z,4.29
2018-11-22T21:55:15.058Z,4.01
2018-11-22T21:57:44.196Z,4.05
2018-11-22T22:00:14.845Z,4.18
2018-11-22T22:02:43.547Z,4.28
2018-11-22T22:05:12.056Z,4.24
2018-11-22T22:07:41.000Z,4.28
2018-11-22T22:10:09.879Z,4.06
2018-11-22T22:12:38.564Z,4.04
2018-11-22T22:15:09.287Z,4.14
2018-11-22T22:17:38.189Z,4.29
2018-11-22T22:20:09.005Z,4.84
2018-11-22T22:22:37.424Z,4.08
2018-11-22T22:25:07.397Z,3.93
2018-11-22T22:27:35.721Z,3.87
2018-11-22T22:30:04.286Z,3.93
2018-11-22T22:32:32.683Z,3.66
2018-11-22T22:35:01.079Z,3.99
2018-11-22T22:37:29.590Z,3.55
2018-11-22T22:40:03.571Z,3.92
2018-11-22T22:42:26.318Z,3.59
2018-11-22T22:44:54.721Z,3.85
2018-11-22T22:47:23.176Z,4.09
2018-11-22T22:49:51.521Z,3.68
2018-11-22T22:52:19.952Z,3.42
2018-11-22T22:54:48.315Z,3.72
2018-11-22T22:57:16.822Z,3.95
2018-11-22T22:59:45.212Z,3.59
2018-11-22T23:02:13.642Z,3.58
2018-11-22T23:04:42.128Z,3.51
2018-11-22T23:07:10.585Z,3.47
2018-11-22T23:09:38.997Z,3.74
2018-11-22T23:12:07.422Z,3.91
2018-11-22T23:14:35.889Z,3.73
2018-11-22T23:17:04.300Z,3.59
2018-11-22T23:19:32.720Z,3.76
2018-11-22T23:22:02.226Z,3.87
2018-11-22T23:24:30.697Z,3.75
2018-11-22T23:26:59.076Z,3.69
2018-11-22T23:29:27.443Z,3.55
2018-11-22T23:31:55.845Z,3.71
2018-11-22T23:34:24.272Z,3.77
2018-11-22T23:36:52.710Z,3.76
2018-11-22T23:39:21.576Z,3.42
2018-11-22T23:41:49.929Z,3.66
2018-11-22T23:44:18.345Z,3.25
2018-11-22T23:46:46.846Z,3.55
2018-11-22T23:49:15.280Z,3.63
2018-11-22T23:51:43.648Z,3.39
2018-11-22T23:54:12.099Z,3.66
2018-11-22T23:56:40.445Z,3.56
2018-11-22T23:59:08.833Z,3.43
